Washoe, Montana
Current Conditions -  °F | °C
As of 11:35 PM on Thursday 30 Oct 2014 (Local Time) from KPOY Reporting Station
Clear Clear  
Wind Chill: 39°   Ceiling: Unl
Heat Index: 45°   Visibility: 10mi
Dew Point: 23°   Wind: 10mph
Humidity: 43%   Direction: 120°ESE
Pressure: 30.2"   Gusts: NA
Location:  45.1631°N, 109.103°W
Report Text: KPOY 310535Z AUTO 12009KT 10SM CLR 07/M05 A3020 RMK AO2
Loading
Personal Weather Stations






























Interactive Weather Map
Tropical Storm Tracking
New forecast layout! Learn more

10-Day Weather Forecast

Advertisements
Track Severe Weather on mobile